sensor_id;sensor_type;location;lat;lon;timestamp;pressure;altitude;pressure_sealevel;temperature;humidity
65880;BME280;52661;51.364;6.054;2023-05-09T00:01:33;101433.94;;;16.70;100.00
65880;BME280;52661;51.364;6.054;2023-05-09T00:03:59;101435.47;;;16.71;100.00
65880;BME280;52661;51.364;6.054;2023-05-09T00:06:25;101418.97;;;16.75;100.00
65880;BME280;52661;51.364;6.054;2023-05-09T00:08:52;101413.16;;;16.73;100.00
65880;BME280;52661;51.364;6.054;2023-05-09T00:11:17;101410.41;;;16.73;100.00
65880;BME280;52661;51.364;6.054;2023-05-09T00:13:43;101407.31;;;16.71;100.00
65880;BME280;52661;51.364;6.054;2023-05-09T00:16:09;101412.38;;;16.72;100.00
65880;BME280;52661;51.364;6.054;2023-05-09T00:18:35;101399.78;;;16.75;100.00
65880;BME280;52661;51.364;6.054;2023-05-09T00:21:01;101391.88;;;16.81;100.00
65880;BME280;52661;51.364;6.054;2023-05-09T00:23:28;101385.28;;;16.78;100.00
65880;BME280;52661;51.364;6.054;2023-05-09T00:25:54;101380.59;;;16.75;100.00
65880;BME280;52661;51.364;6.054;2023-05-09T00:28:19;101379.47;;;16.72;100.00
65880;BME280;52661;51.364;6.054;2023-05-09T00:30:45;101377.09;;;16.75;100.00
65880;BME280;52661;51.364;6.054;2023-05-09T00:33:10;101374.38;;;16.75;100.00
65880;BME280;52661;51.364;6.054;2023-05-09T00:35:35;101374.03;;;16.69;100.00
65880;BME280;52661;51.364;6.054;2023-05-09T00:38:01;101380.31;;;16.69;100.00
65880;BME280;52661;51.364;6.054;2023-05-09T00:40:26;101379.63;;;16.62;100.00
65880;BME280;52661;51.364;6.054;2023-05-09T00:42:51;101383.66;;;16.50;100.00
65880;BME280;52661;51.364;6.054;2023-05-09T00:45:17;101384.50;;;16.47;100.00
65880;BME280;52661;51.364;6.054;2023-05-09T00:47:42;101377.09;;;16.44;100.00
65880;BME280;52661;51.364;6.054;2023-05-09T00:50:08;101369.72;;;16.41;100.00
65880;BME280;52661;51.364;6.054;2023-05-09T00:52:34;101368.06;;;16.47;100.00
65880;BME280;52661;51.364;6.054;2023-05-09T00:55:00;101364.19;;;16.45;100.00
65880;BME280;52661;51.364;6.054;2023-05-09T00:57:26;101362.63;;;16.44;100.00
65880;BME280;52661;51.364;6.054;2023-05-09T00:59:51;101361.94;;;16.36;100.00
65880;BME280;52661;51.364;6.054;2023-05-09T01:02:17;101365.16;;;16.31;100.00
65880;BME280;52661;51.364;6.054;2023-05-09T01:04:44;101364.63;;;16.40;100.00
65880;BME280;52661;51.364;6.054;2023-05-09T01:10:01;101336.50;;;16.36;100.00
65880;BME280;52661;51.364;6.054;2023-05-09T01:15:11;101341.59;;;16.37;100.00
65880;BME280;52661;51.364;6.054;2023-05-09T01:17:49;101335.19;;;16.47;100.00
65880;BME280;52661;51.364;6.054;2023-05-09T01:31:47;101323.03;;;16.48;100.00
65880;BME280;52661;51.364;6.054;2023-05-09T01:34:17;101325.34;;;16.50;100.00
65880;BME280;52661;51.364;6.054;2023-05-09T01:36:43;101326.56;;;16.49;100.00
65880;BME280;52661;51.364;6.054;2023-05-09T01:39:11;101323.09;;;16.45;100.00
65880;BME280;52661;51.364;6.054;2023-05-09T01:41:37;101325.09;;;16.41;100.00
65880;BME280;52661;51.364;6.054;2023-05-09T01:44:05;101318.84;;;16.40;100.00
65880;BME280;52661;51.364;6.054;2023-05-09T01:46:32;101320.78;;;16.40;100.00
65880;BME280;52661;51.364;6.054;2023-05-09T01:49:00;101325.09;;;16.41;100.00
65880;BME280;52661;51.364;6.054;2023-05-09T01:51:26;101319.72;;;16.34;100.00
65880;BME280;52661;51.364;6.054;2023-05-09T01:53:55;101321.22;;;16.38;100.00
65880;BME280;52661;51.364;6.054;2023-05-09T01:56:22;101317.34;;;16.36;100.00
65880;BME280;52661;51.364;6.054;2023-05-09T01:58:50;101313.13;;;16.31;100.00
65880;BME280;52661;51.364;6.054;2023-05-09T02:01:17;101307.69;;;16.28;100.00
65880;BME280;52661;51.364;6.054;2023-05-09T02:03:44;101303.84;;;16.21;100.00
65880;BME280;52661;51.364;6.054;2023-05-09T02:06:11;101301.09;;;16.21;100.00
65880;BME280;52661;51.364;6.054;2023-05-09T02:08:38;101298.78;;;16.20;100.00
65880;BME280;52661;51.364;6.054;2023-05-09T02:11:03;101290.91;;;16.22;100.00
65880;BME280;52661;51.364;6.054;2023-05-09T02:13:29;101301.81;;;16.25;100.00
65880;BME280;52661;51.364;6.054;2023-05-09T02:15:55;101294.78;;;16.24;100.00
65880;BME280;52661;51.364;6.054;2023-05-09T02:18:21;101294.78;;;16.24;100.00
65880;BME280;52661;51.364;6.054;2023-05-09T02:20:47;101297.97;;;16.23;100.00
65880;BME280;52661;51.364;6.054;2023-05-09T02:23:12;101304.72;;;16.15;100.00
65880;BME280;52661;51.364;6.054;2023-05-09T02:25:39;101296.16;;;16.13;100.00
65880;BME280;52661;51.364;6.054;2023-05-09T02:28:06;101292.72;;;16.05;100.00
65880;BME280;52661;51.364;6.054;2023-05-09T02:30:37;101290.75;;;16.06;100.00
65880;BME280;52661;51.364;6.054;2023-05-09T02:33:06;101292.72;;;16.05;100.00
65880;BME280;52661;51.364;6.054;2023-05-09T02:35:31;101297.41;;;16.05;100.00
65880;BME280;52661;51.364;6.054;2023-05-09T02:37:58;101300.94;;;16.05;100.00
65880;BME280;52661;51.364;6.054;2023-05-09T02:40:25;101299.34;;;16.08;100.00
65880;BME280;52661;51.364;6.054;2023-05-09T02:42:52;101292.69;;;16.09;100.00
65880;BME280;52661;51.364;6.054;2023-05-09T02:45:17;101296.91;;;16.13;100.00
65880;BME280;52661;51.364;6.054;2023-05-09T02:47:42;101293.75;;;16.15;100.00
65880;BME280;52661;51.364;6.054;2023-05-09T02:50:08;101291.84;;;16.12;100.00
65880;BME280;52661;51.364;6.054;2023-05-09T02:52:33;101292.69;;;16.09;100.00
65880;BME280;52661;51.364;6.054;2023-05-09T02:54:59;101294.25;;;16.06;100.00
65880;BME280;52661;51.364;6.054;2023-05-09T02:57:24;101282.84;;;16.11;100.00
65880;BME280;52661;51.364;6.054;2023-05-09T02:59:49;101283.25;;;16.10;100.00
65880;BME280;52661;51.364;6.054;2023-05-09T03:02:15;101279.88;;;16.02;100.00
65880;BME280;52661;51.364;6.054;2023-05-09T03:04:40;101275.13;;;16.03;100.00
65880;BME280;52661;51.364;6.054;2023-05-09T03:07:06;101272.41;;;16.03;100.00
65880;BME280;52661;51.364;6.054;2023-05-09T03:09:31;101267.69;;;16.03;100.00
65880;BME280;52661;51.364;6.054;2023-05-09T03:11:56;101266.13;;;16.06;100.00
65880;BME280;52661;51.364;6.054;2023-05-09T03:14:22;101264.22;;;15.99;100.00
65880;BME280;52661;51.364;6.054;2023-05-09T03:16:47;101265.34;;;16.05;100.00
65880;BME280;52661;51.364;6.054;2023-05-09T03:19:13;101268.09;;;16.05;100.00
65880;BME280;52661;51.364;6.054;2023-05-09T03:21:38;101268.13;;;16.02;100.00
65880;BME280;52661;51.364;6.054;2023-05-09T03:24:06;101263.72;;;16.08;100.00
65880;BME280;52661;51.364;6.054;2023-05-09T03:26:32;101259.88;;;16.05;100.00
65880;BME280;52661;51.364;6.054;2023-05-09T03:28:59;101263.72;;;16.08;100.00
65880;BME280;52661;51.364;6.054;2023-05-09T03:31:24;101259.03;;;16.08;100.00
65880;BME280;52661;51.364;6.054;2023-05-09T03:33:50;101252.09;;;16.00;100.00
65880;BME280;52661;51.364;6.054;2023-05-09T03:36:15;101248.19;;;16.01;100.00
65880;BME280;52661;51.364;6.054;2023-05-09T03:38:41;101253.31;;;15.96;100.00
65880;BME280;52661;51.364;6.054;2023-05-09T03:41:06;101245.22;;;15.89;100.00
65880;BME280;52661;51.364;6.054;2023-05-09T03:43:32;101242.53;;;15.85;100.00
65880;BME280;52661;51.364;6.054;2023-05-09T03:45:57;101235.41;;;15.91;100.00
65880;BME280;52661;51.364;6.054;2023-05-09T03:48:22;101233.09;;;15.90;100.00
65880;BME280;52661;51.364;6.054;2023-05-09T03:50:48;101236.59;;;15.90;100.00
65880;BME280;52661;51.364;6.054;2023-05-09T03:53:13;101229.16;;;15.91;100.00
65880;BME280;52661;51.364;6.054;2023-05-09T03:55:38;101225.69;;;15.87;100.00
65880;BME280;52661;51.364;6.054;2023-05-09T03:58:04;101231.63;;;15.82;100.00
65880;BME280;52661;51.364;6.054;2023-05-09T04:00:29;101233.91;;;15.87;100.00
65880;BME280;52661;51.364;6.054;2023-05-09T04:02:54;101222.91;;;15.90;100.00
65880;BME280;52661;51.364;6.054;2023-05-09T04:05:20;101215.09;;;15.89;100.00
65880;BME280;52661;51.364;6.054;2023-05-09T04:07:46;101219.03;;;15.88;100.00
65880;BME280;52661;51.364;6.054;2023-05-09T04:10:11;101215.56;;;15.84;100.00
65880;BME280;52661;51.364;6.054;2023-05-09T04:12:36;101207.75;;;15.82;100.00
65880;BME280;52661;51.364;6.054;2023-05-09T04:15:02;101210.56;;;15.79;100.00
65880;BME280;52661;51.364;6.054;2023-05-09T04:17:27;101212.88;;;15.80;100.00
65880;BME280;52661;51.364;6.054;2023-05-09T04:19:53;101216.34;;;15.84;100.00
65880;BME280;52661;51.364;6.054;2023-05-09T04:22:18;101218.75;;;15.79;100.00
65880;BME280;52661;51.364;6.054;2023-05-09T04:24:43;101212.50;;;15.78;100.00
65880;BME280;52661;51.364;6.054;2023-05-09T04:27:09;101210.19;;;15.77;100.00
65880;BME280;52661;51.364;6.054;2023-05-09T04:29:34;101213.66;;;15.81;100.00
65880;BME280;52661;51.364;6.054;2023-05-09T04:32:00;101219.53;;;15.79;100.00
65880;BME280;52661;51.364;6.054;2023-05-09T04:34:26;101217.97;;;15.78;100.00
65880;BME280;52661;51.364;6.054;2023-05-09T04:36:52;101213.25;;;15.82;100.00
65880;BME280;52661;51.364;6.054;2023-05-09T04:39:17;101205.84;;;15.79;100.00
65880;BME280;52661;51.364;6.054;2023-05-09T04:41:44;101210.25;;;15.73;100.00
65880;BME280;52661;51.364;6.054;2023-05-09T04:44:12;101201.25;;;15.72;100.00
65880;BME280;52661;51.364;6.054;2023-05-09T04:46:37;101206.25;;;15.77;100.00
65880;BME280;52661;51.364;6.054;2023-05-09T04:49:02;101196.09;;;15.78;100.00
65880;BME280;52661;51.364;6.054;2023-05-09T04:51:28;101202.28;;;15.82;100.00
65880;BME280;52661;51.364;6.054;2023-05-09T04:53:53;101197.66;;;15.79;100.00
65880;BME280;52661;51.364;6.054;2023-05-09T04:56:18;101196.88;;;15.79;100.00
65880;BME280;52661;51.364;6.054;2023-05-09T04:58:43;101188.31;;;15.77;100.00
65880;BME280;52661;51.364;6.054;2023-05-09T05:01:09;101187.53;;;15.76;100.00
65880;BME280;52661;51.364;6.054;2023-05-09T05:03:34;101186.38;;;15.73;100.00
65880;BME280;52661;51.364;6.054;2023-05-09T05:06:00;101180.03;;;15.80;100.00
65880;BME280;52661;51.364;6.054;2023-05-09T05:08:25;101169.50;;;15.79;100.00
65880;BME280;52661;51.364;6.054;2023-05-09T05:10:50;101172.56;;;15.84;100.00
65880;BME280;52661;51.364;6.054;2023-05-09T05:13:16;101168.22;;;15.87;100.00
65880;BME280;52661;51.364;6.054;2023-05-09T05:15:41;101165.53;;;15.83;100.00
65880;BME280;52661;51.364;6.054;2023-05-09T05:18:07;101167.50;;;15.83;100.00
65880;BME280;52661;51.364;6.054;2023-05-09T05:20:32;101172.50;;;15.88;100.00
65880;BME280;52661;51.364;6.054;2023-05-09T05:22:58;101171.00;;;15.83;100.00
65880;BME280;52661;51.364;6.054;2023-05-09T05:25:24;101171.88;;;15.77;100.00
65880;BME280;52661;51.364;6.054;2023-05-09T05:27:49;101160.06;;;15.83;100.00
65880;BME280;52661;51.364;6.054;2023-05-09T05:30:15;101158.88;;;15.84;100.00
65880;BME280;52661;51.364;6.054;2023-05-09T05:32:40;101159.56;;;15.88;100.00
65880;BME280;52661;51.364;6.054;2023-05-09T05:35:06;101156.03;;;15.91;100.00
65880;BME280;52661;51.364;6.054;2023-05-09T05:37:33;101152.09;;;15.92;100.00
65880;BME280;52661;51.364;6.054;2023-05-09T05:39:59;101147.38;;;15.93;100.00
65880;BME280;52661;51.364;6.054;2023-05-09T05:42:24;101145.47;;;15.90;100.00
65880;BME280;52661;51.364;6.054;2023-05-09T05:44:49;101142.75;;;15.90;100.00
65880;BME280;52661;51.364;6.054;2023-05-09T05:47:15;101141.13;;;15.92;100.00
65880;BME280;52661;51.364;6.054;2023-05-09T05:49:40;101134.47;;;15.93;100.00
65880;BME280;52661;51.364;6.054;2023-05-09T05:52:05;101129.56;;;16.08;100.00
65880;BME280;52661;51.364;6.054;2023-05-09T05:54:31;101135.44;;;16.06;100.00
65880;BME280;52661;51.364;6.054;2023-05-09T05:56:56;101126.22;;;15.97;100.00
65880;BME280;52661;51.364;6.054;2023-05-09T05:59:21;101128.66;;;15.91;100.00
65880;BME280;52661;51.364;6.054;2023-05-09T06:01:47;101133.75;;;15.89;100.00
65880;BME280;52661;51.364;6.054;2023-05-09T06:04:12;101130.19;;;15.92;100.00
65880;BME280;52661;51.364;6.054;2023-05-09T06:06:37;101123.59;;;15.90;100.00
65880;BME280;52661;51.364;6.054;2023-05-09T06:09:03;101123.13;;;15.95;100.00
65880;BME280;52661;51.364;6.054;2023-05-09T06:11:28;101112.13;;;15.98;100.00
65880;BME280;52661;51.364;6.054;2023-05-09T06:13:53;101114.53;;;15.93;100.00
65880;BME280;52661;51.364;6.054;2023-05-09T06:16:19;101114.81;;;16.02;100.00
65880;BME280;52661;51.364;6.054;2023-05-09T06:18:45;101103.00;;;16.05;100.00
65880;BME280;52661;51.364;6.054;2023-05-09T06:21:10;101109.59;;;16.07;100.00
65880;BME280;52661;51.364;6.054;2023-05-09T06:23:36;101098.19;;;16.12;100.00
65880;BME280;52661;51.364;6.054;2023-05-09T06:26:02;101091.56;;;16.10;100.00
65880;BME280;52661;51.364;6.054;2023-05-09T06:28:28;101096.22;;;16.13;100.00
65880;BME280;52661;51.364;6.054;2023-05-09T06:30:53;101093.84;;;16.15;100.00
65880;BME280;52661;51.364;6.054;2023-05-09T06:33:18;101092.94;;;16.21;100.00
65880;BME280;52661;51.364;6.054;2023-05-09T06:35:44;101078.91;;;16.19;100.00
65880;BME280;52661;51.364;6.054;2023-05-09T06:38:09;101086.63;;;16.24;100.00
65880;BME280;52661;51.364;6.054;2023-05-09T06:40:35;101078.34;;;16.28;100.00
65880;BME280;52661;51.364;6.054;2023-05-09T06:43:00;101084.47;;;16.36;100.00
65880;BME280;52661;51.364;6.054;2023-05-09T06:45:25;101069.13;;;16.42;100.00
65880;BME280;52661;51.364;6.054;2023-05-09T06:47:51;101076.06;;;16.46;100.00
65880;BME280;52661;51.364;6.054;2023-05-09T06:50:16;101070.03;;;16.55;100.00
65880;BME280;52661;51.364;6.054;2023-05-09T06:52:42;101068.81;;;16.59;100.00
65880;BME280;52661;51.364;6.054;2023-05-09T06:55:08;101073.50;;;16.59;100.00
65880;BME280;52661;51.364;6.054;2023-05-09T06:57:33;101063.97;;;16.67;100.00
65880;BME280;52661;51.364;6.054;2023-05-09T06:59:58;101060.25;;;16.77;100.00
65880;BME280;52661;51.364;6.054;2023-05-09T07:02:24;101055.53;;;16.78;100.00
65880;BME280;52661;51.364;6.054;2023-05-09T07:04:49;101053.06;;;16.83;100.00
65880;BME280;52661;51.364;6.054;2023-05-09T07:07:15;101056.44;;;16.91;100.00
65880;BME280;52661;51.364;6.054;2023-05-09T07:09:40;101054.31;;;16.98;100.00
65880;BME280;52661;51.364;6.054;2023-05-09T07:12:06;101051.44;;;17.05;100.00
65880;BME280;52661;51.364;6.054;2023-05-09T07:14:31;101052.63;;;17.04;100.00
65880;BME280;52661;51.364;6.054;2023-05-09T07:16:56;101043.69;;;17.00;100.00
65880;BME280;52661;51.364;6.054;2023-05-09T07:19:22;101038.13;;;17.04;100.00
65880;BME280;52661;51.364;6.054;2023-05-09T07:21:47;101037.72;;;17.05;100.00
65880;BME280;52661;51.364;6.054;2023-05-09T07:24:12;101027.78;;;17.11;100.00
65880;BME280;52661;51.364;6.054;2023-05-09T07:26:38;101039.44;;;17.15;100.00
65880;BME280;52661;51.364;6.054;2023-05-09T07:29:03;101029.41;;;17.09;100.00
65880;BME280;52661;51.364;6.054;2023-05-09T07:31:29;101031.59;;;17.17;100.00
65880;BME280;52661;51.364;6.054;2023-05-09T07:33:54;101022.75;;;17.26;100.00
65880;BME280;52661;51.364;6.054;2023-05-09T07:36:19;101021.41;;;17.34;100.00
65880;BME280;52661;51.364;6.054;2023-05-09T07:38:45;101014.72;;;17.35;100.00
65880;BME280;52661;51.364;6.054;2023-05-09T07:41:12;101006.31;;;17.42;100.00
65880;BME280;52661;51.364;6.054;2023-05-09T07:43:37;101015.41;;;17.39;100.00
65880;BME280;52661;51.364;6.054;2023-05-09T07:46:02;101010.25;;;17.41;100.00
65880;BME280;52661;51.364;6.054;2023-05-09T07:48:28;101004.75;;;17.41;100.00
65880;BME280;52661;51.364;6.054;2023-05-09T07:50:53;101004.69;;;17.45;100.00
65880;BME280;52661;51.364;6.054;2023-05-09T07:53:18;101002.63;;;17.49;100.00
65880;BME280;52661;51.364;6.054;2023-05-09T07:55:44;101006.16;;;17.49;100.00
65880;BME280;52661;51.364;6.054;2023-05-09T07:58:11;100996.28;;;17.52;100.00
65880;BME280;52661;51.364;6.054;2023-05-09T08:00:36;101000.75;;;17.62;100.00
65880;BME280;52661;51.364;6.054;2023-05-09T08:03:02;100993.31;;;17.62;100.00
65880;BME280;52661;51.364;6.054;2023-05-09T08:05:27;100996.19;;;17.55;100.00
65880;BME280;52661;51.364;6.054;2023-05-09T08:07:52;100983.97;;;17.60;100.00
65880;BME280;52661;51.364;6.054;2023-05-09T08:10:18;100980.25;;;17.50;100.00
65880;BME280;52661;51.364;6.054;2023-05-09T08:12:43;100978.16;;;17.58;100.00
65880;BME280;52661;51.364;6.054;2023-05-09T08:15:09;100979.41;;;17.53;100.00
65880;BME280;52661;51.364;6.054;2023-05-09T08:17:34;100971.56;;;17.52;100.00
65880;BME280;52661;51.364;6.054;2023-05-09T08:20:00;100970.13;;;17.47;100.00
65880;BME280;52661;51.364;6.054;2023-05-09T08:22:25;100971.34;;;17.46;100.00
65880;BME280;52661;51.364;6.054;2023-05-09T08:24:50;100963.09;;;17.46;100.00
65880;BME280;52661;51.364;6.054;2023-05-09T08:27:16;100969.13;;;17.57;100.00
65880;BME280;52661;51.364;6.054;2023-05-09T08:29:42;100955.81;;;17.56;100.00
65880;BME280;52661;51.364;6.054;2023-05-09T08:32:07;100955.03;;;17.55;100.00
65880;BME280;52661;51.364;6.054;2023-05-09T08:34:33;100951.34;;;17.62;100.00
65880;BME280;52661;51.364;6.054;2023-05-09T08:37:02;100945.78;;;17.65;100.00
65880;BME280;52661;51.364;6.054;2023-05-09T08:39:28;100957.81;;;17.72;100.00
65880;BME280;52661;51.364;6.054;2023-05-09T08:41:57;100949.19;;;17.69;100.00
65880;BME280;52661;51.364;6.054;2023-05-09T08:44:24;100946.47;;;17.69;100.00
65880;BME280;52661;51.364;6.054;2023-05-09T08:46:51;100941.75;;;17.70;100.00
65880;BME280;52661;51.364;6.054;2023-05-09T08:49:22;100942.34;;;17.78;100.00
65880;BME280;52661;51.364;6.054;2023-05-09T08:51:48;100933.31;;;17.77;100.00
65880;BME280;52661;51.364;6.054;2023-05-09T08:54:15;100926.28;;;17.76;100.00
65880;BME280;52661;51.364;6.054;2023-05-09T08:56:40;100937.19;;;17.80;100.00
65880;BME280;52661;51.364;6.054;2023-05-09T08:59:06;100927.31;;;17.82;100.00
65880;BME280;52661;51.364;6.054;2023-05-09T09:01:33;100930.06;;;17.82;100.00
65880;BME280;52661;51.364;6.054;2023-05-09T09:04:00;100931.72;;;17.80;100.00
65880;BME280;52661;51.364;6.054;2023-05-09T09:06:27;100930.38;;;17.84;100.00
65880;BME280;52661;51.364;6.054;2023-05-09T09:08:54;100932.91;;;17.79;100.00
65880;BME280;52661;51.364;6.054;2023-05-09T09:11:21;100928.88;;;17.83;100.00
65880;BME280;52661;51.364;6.054;2023-05-09T09:13:49;100928.69;;;17.90;100.00
65880;BME280;52661;51.364;6.054;2023-05-09T09:16:19;100922.31;;;17.93;100.00
65880;BME280;52661;51.364;6.054;2023-05-09T09:18:46;100921.97;;;17.91;100.00
65880;BME280;52661;51.364;6.054;2023-05-09T09:21:14;100912.75;;;17.98;100.00
65880;BME280;52661;51.364;6.054;2023-05-09T09:23:42;100913.88;;;18.00;100.00
65880;BME280;52661;51.364;6.054;2023-05-09T09:26:08;100918.09;;;18.05;100.00
65880;BME280;52661;51.364;6.054;2023-05-09T09:28:34;100907.84;;;18.05;100.00
65880;BME280;52661;51.364;6.054;2023-05-09T09:30:59;100910.94;;;18.07;100.00
65880;BME280;52661;51.364;6.054;2023-05-09T09:33:26;100907.09;;;18.05;100.00
65880;BME280;52661;51.364;6.054;2023-05-09T09:35:53;100900.56;;;17.99;100.00
65880;BME280;52661;51.364;6.054;2023-05-09T09:38:21;100905.16;;;17.89;100.00
65880;BME280;52661;51.364;6.054;2023-05-09T09:40:57;100904.31;;;17.76;100.00
65880;BME280;52661;51.364;6.054;2023-05-09T09:43:27;100901.66;;;17.73;100.00
65880;BME280;52661;51.364;6.054;2023-05-09T09:45:52;100896.00;;;17.80;100.00
65880;BME280;52661;51.364;6.054;2023-05-09T09:48:22;100886.72;;;17.90;100.00
65880;BME280;52661;51.364;6.054;2023-05-09T09:50:48;100891.03;;;18.03;100.00
65880;BME280;52661;51.364;6.054;2023-05-09T09:53:13;100886.13;;;18.11;100.00
65880;BME280;52661;51.364;6.054;2023-05-09T09:55:48;100883.50;;;18.20;100.00
65880;BME280;52661;51.364;6.054;2023-05-09T09:58:17;100885.06;;;18.34;100.00
65880;BME280;52661;51.364;6.054;2023-05-09T10:00:43;100886.03;;;18.27;100.00
65880;BME280;52661;51.364;6.054;2023-05-09T10:03:14;100875.69;;;18.18;100.00
65880;BME280;52661;51.364;6.054;2023-05-09T10:05:40;100882.78;;;18.03;100.00
65880;BME280;52661;51.364;6.054;2023-05-09T10:08:06;100866.53;;;17.96;100.00
65880;BME280;52661;51.364;6.054;2023-05-09T10:10:35;100875.84;;;17.99;100.00
65880;BME280;52661;51.364;6.054;2023-05-09T10:13:03;100869.94;;;18.00;100.00
65880;BME280;52661;51.364;6.054;2023-05-09T10:15:30;100871.91;;;18.00;100.00
65880;BME280;52661;51.364;6.054;2023-05-09T10:17:57;100868.28;;;18.03;100.00
65880;BME280;52661;51.364;6.054;2023-05-09T10:20:23;100865.31;;;17.97;100.00
65880;BME280;52661;51.364;6.054;2023-05-09T10:22:52;100869.50;;;18.02;100.00
65880;BME280;52661;51.364;6.054;2023-05-09T10:25:24;100867.28;;;17.97;100.00
65880;BME280;52661;51.364;6.054;2023-05-09T10:27:53;100872.22;;;17.89;100.00
65880;BME280;52661;51.364;6.054;2023-05-09T10:30:22;100866.53;;;17.67;100.00
65880;BME280;52661;51.364;6.054;2023-05-09T10:32:51;100861.91;;;17.64;100.00
65880;BME280;52661;51.364;6.054;2023-05-09T10:35:18;100859.75;;;17.72;100.00
65880;BME280;52661;51.364;6.054;2023-05-09T10:37:44;100860.44;;;17.60;100.00
65880;BME280;52661;51.364;6.054;2023-05-09T10:40:10;100852.03;;;17.51;100.00
65880;BME280;52661;51.364;6.054;2023-05-09T10:42:41;100847.81;;;17.62;100.00
65880;BME280;52661;51.364;6.054;2023-05-09T10:45:08;100838.72;;;17.65;100.00
65880;BME280;52661;51.364;6.054;2023-05-09T10:47:34;100848.97;;;17.65;100.00
65880;BME280;52661;51.364;6.054;2023-05-09T10:50:01;100839.28;;;17.60;100.00
65880;BME280;52661;51.364;6.054;2023-05-09T10:52:32;100836.22;;;17.71;100.00
65880;BME280;52661;51.364;6.054;2023-05-09T10:54:59;100835.75;;;17.60;100.00
65880;BME280;52661;51.364;6.054;2023-05-09T10:57:29;100835.97;;;17.65;100.00
65880;BME280;52661;51.364;6.054;2023-05-09T10:59:56;100821.63;;;17.74;100.00
65880;BME280;52661;51.364;6.054;2023-05-09T11:02:22;100822.88;;;17.86;100.00
65880;BME280;52661;51.364;6.054;2023-05-09T11:05:15;100824.53;;;17.83;100.00
65880;BME280;52661;51.364;6.054;2023-05-09T11:07:41;100823.41;;;17.81;100.00
65880;BME280;52661;51.364;6.054;2023-05-09T11:10:08;100823.78;;;17.95;100.00
65880;BME280;52661;51.364;6.054;2023-05-09T11:12:33;100814.09;;;17.91;100.00
65880;BME280;52661;51.364;6.054;2023-05-09T11:15:06;100817.13;;;17.80;100.00
65880;BME280;52661;51.364;6.054;2023-05-09T11:17:37;100807.91;;;17.74;100.00
65880;BME280;52661;51.364;6.054;2023-05-09T11:20:04;100795.34;;;17.60;100.00
65880;BME280;52661;51.364;6.054;2023-05-09T11:22:36;100802.50;;;17.58;100.00
65880;BME280;52661;51.364;6.054;2023-05-09T11:25:07;100793.28;;;17.48;100.00
65880;BME280;52661;51.364;6.054;2023-05-09T11:27:47;100789.44;;;17.46;100.00
65880;BME280;52661;51.364;6.054;2023-05-09T11:30:16;100782.31;;;17.48;100.00
65880;BME280;52661;51.364;6.054;2023-05-09T11:32:44;100778.03;;;17.47;100.00
65880;BME280;52661;51.364;6.054;2023-05-09T11:35:12;100784.63;;;17.50;100.00
65880;BME280;52661;51.364;6.054;2023-05-09T11:40:20;100778.91;;;17.44;100.00
65880;BME280;52661;51.364;6.054;2023-05-09T11:42:50;100773.31;;;17.48;100.00
65880;BME280;52661;51.364;6.054;2023-05-09T11:45:20;100779.16;;;17.50;100.00
65880;BME280;52661;51.364;6.054;2023-05-09T11:47:46;100776.22;;;17.28;100.00
65880;BME280;52661;51.364;6.054;2023-05-09T11:50:13;100770.22;;;17.17;100.00
65880;BME280;52661;51.364;6.054;2023-05-09T11:52:39;100766.84;;;17.26;100.00
65880;BME280;52661;51.364;6.054;2023-05-09T11:55:14;100768.13;;;17.37;100.00
65880;BME280;52661;51.364;6.054;2023-05-09T11:57:45;100769.56;;;17.42;100.00
65880;BME280;52661;51.364;6.054;2023-05-09T12:00:14;100766.03;;;17.41;100.00
65880;BME280;52661;51.364;6.054;2023-05-09T12:02:42;100754.34;;;17.25;100.00
65880;BME280;52661;51.364;6.054;2023-05-09T12:05:10;100758.31;;;17.23;100.00
65880;BME280;52661;51.364;6.054;2023-05-09T12:07:36;100755.47;;;17.27;100.00
65880;BME280;52661;51.364;6.054;2023-05-09T12:10:08;100758.69;;;17.09;100.00
65880;BME280;52661;51.364;6.054;2023-05-09T12:12:47;100748.03;;;17.11;100.00
65880;BME280;52661;51.364;6.054;2023-05-09T12:15:14;100753.88;;;16.97;100.00
65880;BME280;52661;51.364;6.054;2023-05-09T12:17:40;100751.50;;;16.99;100.00
65880;BME280;52661;51.364;6.054;2023-05-09T12:20:07;100746.50;;;17.10;100.00
65880;BME280;52661;51.364;6.054;2023-05-09T12:22:33;100749.00;;;17.05;100.00
65880;BME280;52661;51.364;6.054;2023-05-09T12:25:00;100752.94;;;17.04;100.00
65880;BME280;52661;51.364;6.054;2023-05-09T12:27:27;100748.91;;;17.08;100.00
65880;BME280;52661;51.364;6.054;2023-05-09T12:29:54;100745.06;;;17.06;100.00
65880;BME280;52661;51.364;6.054;2023-05-09T12:32:20;100737.28;;;16.88;100.00
65880;BME280;52661;51.364;6.054;2023-05-09T12:34:46;100741.59;;;16.89;100.00
65880;BME280;52661;51.364;6.054;2023-05-09T12:37:18;100741.03;;;16.94;100.00
65880;BME280;52661;51.364;6.054;2023-05-09T12:39:59;100740.69;;;17.08;100.00
65880;BME280;52661;51.364;6.054;2023-05-09T12:42:29;100734.78;;;17.10;100.00
65880;BME280;52661;51.364;6.054;2023-05-09T12:44:55;100730.56;;;17.05;100.00
65880;BME280;52661;51.364;6.054;2023-05-09T12:47:20;100736.25;;;16.98;100.00
65880;BME280;52661;51.364;6.054;2023-05-09T12:49:49;100736.34;;;16.79;100.00
65880;BME280;52661;51.364;6.054;2023-05-09T12:52:17;100727.00;;;16.44;100.00
65880;BME280;52661;51.364;6.054;2023-05-09T12:54:45;100726.56;;;16.29;100.00
65880;BME280;52661;51.364;6.054;2023-05-09T12:57:19;100728.81;;;16.34;100.00